Allemand, Louisiana
Current Conditions -  °F | °C
As of 4:50 PM on Wednesday 26 Nov 2014 (Local Time) from KHUM Reporting Station
Clear Clear  
Wind Chill: 63°   Ceiling: Unl
Heat Index: 63°   Visibility: 7mi
Dew Point: 43°   Wind: 5mph
Humidity: 48%   Direction: 240°WSW
Pressure: 30.21"   Gusts: NA
Location:  29.5867°N, 90.8252°W
Report Text: KHUM 262250Z 24004KT 7SM SKC 17/06 A3021 RMK RY12/30 CLOSED ATIS X VA RY18 DV
Loading
Personal Weather Stations






























Interactive Weather Map New forecast layout! Learn more

10-Day Weather Forecast

Advertisements
Track Severe Weather on mobile